WEATHER DATA

TODAY
Time Temp. Dewp. Hum. Wind dir Wind speed Wind gust Bar. 1h Prec. 24h Prec.
00:19 -3.6 -5.8 83 302 0.3 0.8 1019.6 0.0000 0.0000
00:29 -3.6 -5.8 83 333 0.3 1.1 1019.6 0.0000 0.0000
00:39 -3.7 -5.9 83 335 0.8 1.4 1019.5 0.0000 0.0000
00:49 -3.8 -6 83 329 0.3 1.1 1019.6 0.0000 0.0000
00:59 -3.8 -6 83 337 0.3 1.1 1019.5 0.0000 0.0000
01:09 -3.9 -6.1 83 336 0.3 0.8 1019.6 0.0000 0.0000
01:19 -4 -6 84 337 0.8 1.1 1019.5 0.0000 0.0000
01:29 -4.1 -6.1 84 345 0.8 1.1 1019.6 0.0000 0.0000
01:39 -4.2 -6.2 84 342 0.8 1.1 1019.6 0.0000 0.0000
01:49 -4.2 -6.2 84 336 0.3 1.1 1019.6 0.0000 0.0000
02:00 -4.3 -6.3 84 332 0.3 1.1 1019.6 0.0000 0.0000
02:10 -4.4 -6.3 85 326 0.8 1.1 1019.6 0.0000 0.0000
02:19 -4.4 -6.3 85 310 0.3 1.1 1019.5 0.0000 0.0000
02:40 -4.6 -6.4 86 332 0.8 1.1 1019.2 0.0000 0.0000
02:50 -4.6 -6.4 86 333 0.8 1.4 1019.2 0.0000 0.0000
02:59 -4.7 -6.5 86 326 0.3 1.1 1019 0.0000 0.0000
03:10 -4.7 -6.5 86 315 0.3 1.1 1019.1 0.0000 0.0000
03:20 -4.6 -6.2 87 318 0.3 1.1 1019.1 0.0000 0.0000
03:30 -4.6 -6.2 87 332 0.8 1.4 1019 0.0000 0.0000
03:40 -4.7 -6.3 87 307 0.3 1.1 1019.2 0.0000 0.0000
03:50 -4.7 -6.3 87 325 0.3 1.1 1019.1 0.0000 0.0000
04:00 -4.8 -6.4 87 328 0.8 1.4 1019 0.0000 0.0000
04:10 -4.8 -6.4 87 311 0.3 1.1 1019 0.0000 0.0000
04:21 -4.8 -6.4 87 315 0.3 1.1 1019 0.0000 0.0000
04:30 -4.9 -6.5 87 270 0.3 0.8 1018.9 0.0000 0.0000
04:40 -4.9 -6.5 87 331 0.8 1.4 1018.9 0.0000 0.0000
04:51 -5 -6.6 87 327 0.3 1.1 1019 0.0000 0.0000
05:01 -5 -6.6 87 326 0.3 1.1 1019 0.0000 0.0000
05:10 -5.1 -6.6 88 315 0.3 1.1 1019.1 0.0000 0.0000
05:20 -5.1 -6.6 88 325 0.8 1.4 1019.1 0.0000 0.0000
05:31 -5.2 -6.7 88 334 0.8 1.1 1019.1 0.0000 0.0000
05:41 -5.2 -6.7 88 332 1.1 1.9 1019.1 0.0000 0.0000
05:51 -5.2 -6.7 88 335 0.8 1.9 1019 0.0000 0.0000
06:01 -5.2 -6.6 89 318 0.3 1.1 1019.1 0.0000 0.0000
06:11 -5.3 -6.8 88 323 0.8 1.4 1019.1 0.0000 0.0000
06:21 -5.3 -6.7 89 327 0.8 1.4 1019.1 0.0000 0.0000
06:31 -5.3 -6.7 89 270 0.3 1.1 1019.1 0.0000 0.0000
06:41 -5.3 -6.7 89 324 0.3 1.1 1019 0.0000 0.0000
07:01 -5.4 -6.8 89 326 0.8 1.1 1019.4 0.0000 0.0000
07:11 -5.4 -6.8 89 315 0.3 1.1 1019.5 0.0000 0.0000
07:22 -5.3 -6.5 90 308 0.3 1.1 1019.6 0.0000 0.0000
07:31 -5.2 -6.4 90 324 0.3 1.1 1019.6 0.0000 0.0000
07:41 -5.1 -6.3 90 315 0.3 1.1 1019.8 0.0000 0.0000
07:52 -4.9 -6 91 310 0.3 1.1 1019.9 0.0000 0.0000
08:02 -4.8 -5.9 91 310 0.3 1.1 1019.9 0.0000 0.0000
08:11 -4.7 -5.8 91 323 0.8 1.1 1020 0.0000 0.0000
08:22 -4.5 -5.5 92 315 0.3 1.1 1020 0.0000 0.0000
08:32 -4.3 -5.3 92 302 0.3 0.8 1020.1 0.0000 0.0000
08:42 -4 -4.9 93 315 0.3 1.1 1019.9 0.0000 0.0000
08:52 -3.7 -4.6 93 270 0.3 0.8 1020 0.0000 0.0000
09:02 -3.2 -3.9 94 315 0.3 0.8 1020.1 0.0000 0.0000
09:12 -2.7 -3.3 95 270 0.3 1.1 1020.1 0.0000 0.0000
09:22 -2 -2.6 95 315 0.3 1.1 1020.1 0.0000 0.0000
09:32 -1.1 -1.6 96 270 0.3 1.1 1020.1 0.0000 0.0000
09:42 0.1 -0.4 96 315 0.3 0.8 1020 0.0000 0.0000
09:52 1.6 0.7 94 304 0.3 0.8 1020 0.0000 0.0000
10:02 3.1 1.5 89 310 0.3 0.8 1020.1 0.0000 0.0000
10:13 4.3 1.8 84 270 0.3 1.1 1020.2 0.0000 0.0000
10:23 5.2 2 80 315 0.3 1.1 1020.2 0.0000 0.0000
10:32 6.1 2.7 79 315 0.3 0.8 1020.2 0.0000 0.0000
10:43 7.2 3.1 75 101 0.8 2.2 1020.1 0.0000 0.0000
10:53 7.6 2.7 71 90 0.3 1.1 1020.2 0.0000 0.0000
11:03 7.5 2 68 135 0.3 1.1 1020.3 0.0000 0.0000
11:12 7.4 1.9 68 90 0.3 2.2 1020 0.0000 0.0000
11:23 7.3 1.6 67 329 0.3 0.8 1020.1 0.0000 0.0000
11:33 7.4 1.9 68 336 0.3 1.1 1020.1 0.0000 0.0000
11:43 7.7 2 67 90 0.3 1.1 1020.1 0.0000 0.0000
11:53 8.4 3.1 69 338 0.8 3.3 1020.3 0.0000 0.0000
12:03 9.1 3.3 67 337 0.8 2.8 1020.2 0.0000 0.0000
12:13 8.7 2.3 64 338 1.1 3.3 1020.1 0.0000 0.0000
12:23 8.6 2.2 64 333 1.1 5.8 1020.3 0.0000 0.0000
12:34 8 1.6 64 341 1.4 3.9 1020.2 0.0000 0.0000
12:43 7.7 1.5 65 342 1.4 3.9 1020.2 0.0000 0.0000
12:46 7.6 1.4 65 355 0.8 3.1 1020.1 0.0000 0.0000
13:14 6.6 0.9 67 339 1.1 3.9 1020.1 0.0000 0.0000
13:24 6.4 0.9 68 347 0.8 1.9 1020 0.0000 0.0000
13:34 6.3 0.8 68 346 1.1 3.1 1020 0.0000 0.0000
13:44 6.1 0.8 69 348 0.3 1.4 1019.9 0.0000 0.0000
13:54 6.1 1 70 343 1.1 3.3 1020.1 0.0000 0.0000
14:04 5.9 0.9 70 345 1.1 3.3 1020.1 0.0000 0.0000
14:14 5.8 1 71 346 0.3 1.4 1020 0.0000 0.0000
14:25 5.7 0.9 71 135 0.3 0.8 1020 0.0000 0.0000
14:34 5.6 1 72 26 0.3 1.9 1020 0.0000 0.0000
14:44 5.5 0.9 72 11 0.3 1.9 1020.1 0.0000 0.0000
14:54 5.4 1 73 325 0.8 1.9 1020.3 0.0000 0.0000
15:05 5.2 1.1 75 332 0.8 1.9 1020.2 0.0000 0.0000
15:14 5 1.1 76 340 0.8 2.8 1020.4 0.0000 0.0000
15:24 4.8 1.1 77 341 0.8 1.9 1020.3 0.0000 0.0000
15:35 4.7 1 77 344 0.8 2.8 1020.3 0.0000 0.0000
15:45 4.5 0.8 77 335 1.1 2.8 1020.4 0.0000 0.0000
15:55 4.4 0.9 78 333 0.8 1.4 1020.4 0.0000 0.0000
16:05 4.3 0.8 78 329 0.3 1.1 1020.4 0.0000 0.0000
16:15 4.2 0.9 79 18 0.3 0.8 1020.4 0.0000 0.0000
16:25 4.2 0.9 79 0 0.3 1.1 1020.4 0.0000 0.0000
16:35 4.2 0.9 79 180 0.3 0.8 1020.2 0.0000 0.0000
16:45 4.2 0.9 79 343 0.3 1.1 1020.1 0.0000 0.0000
16:55 4 0.7 79 0 0.3 1.4 1020.2 0.0000 0.0000
17:05 3.7 0.4 79 338 0.8 2.2 1020.3 0.0000 0.0000
17:15 3.6 0.5 80 341 0.3 1.4 1020.3 0.0000 0.0000
17:26 3.5 0.6 81 338 0.8 2.2 1020.4 0.0000 0.0000
17:35 3.6 0.6 81 340 0.8 2.8 1020.4 0.0000 0.0000
17:45 3.5 0.7 82 0 0.3 1.4 1020.4 0.0000 0.0000
17:56 3.5 0.7 82 351 0.3 1.9 1020.6 0.0000 0.0000
18:06 3.3 0.5 82 354 0.3 1.1 1020.7 0.0000 0.0000
18:15 3.2 0.4 82 333 0.3 1.1 1020.9 0.0000 0.0000
18:25 3.2 0.6 83 339 0.8 1.9 1021 0.0000 0.0000
18:36 3.1 0.5 83 336 0.8 3.1 1021.1 0.0000 0.0000
18:46 3 0.4 83 335 0.8 1.9 1021.3 0.0000 0.0000

DAY STATISTIC

2019-02-19
TEMPERATURE
AVERAGE
0.4
HIGH
9.1
12:03
LOW
-5.4
07:01
PRESSURE
AVERAGE
1019.8
HIGH
1021.3
18:46
LOW
1018.9
04:30
DEWPOINT
AVERAGE
-2.4
HIGH
3.3
12:03
LOW
-6.8
06:11
HUMIDITY
AVERAGE
82
HIGH
96
09:32
LOW
64
12:13
WIND SPEED
AVERAGE
0.5
HIGH
1.4
12:34
WIND GUST
AVERAGE
1.6
HIGH
5.8
12:23
WIND DIRECTION
PREVAILING
NW
59.3%
N
27.8
NE
0.9
E
3.7
SE
1.9
S
0.9
SW
0.0
W
5.6
NW
59.3
PRECIPITATION
RAIN HOUR
0.0
RAIN DAY
0.0
TEMPERATURE (°C)
LOW
-5.4
HIGH
9.1
AVERAGE
0.4
PRESSURE (hpa)
LOW
1018.9
HIGH
1021.3
AVERAGE
1019.8
DEVICE